Muhlenburg Park, Pennsylvania
Current Conditions -  °F | °C
As of 8:54 PM on Friday 31 Oct 2014 (Local Time) from KRDG Reporting Station
Overcast Overcast  
Wind Chill: 49°   Ceiling: 6000
Heat Index: 49°   Visibility: 10mi
Dew Point: 36°   Wind: 3mph
Humidity: 61%   Direction: 310°NW
Pressure: 29.87"   Gusts: NA
Location:  40.3999°N, 75.9335°W
Report Text: KRDG 010054Z 31003KT 10SM SCT048 OVC060 09/02 A2987 RMK AO2 SLP123 T00940022
Loading
Personal Weather Stations






























Interactive Weather Map
Tropical Storm Tracking
New forecast layout! Learn more

10-Day Weather Forecast

Advertisements
Track Severe Weather on mobile